Time;durP1;ratioP1;P1;durP2;ratioP2;P2;SDS_P1;SDS_P2;PMS_P1;PMS_P2;Temp;Humidity;BMP_temperature;BMP_pressure;BME280_temperature;BME280_humidity;BME280_pressure;Samples;Min_cycle;Max_cycle;Signal;HPM_P1;HPM_P2
2021/01/08 00:00:24;;;;;;;17.60;6.65;;;3.50;99.90;;;;;;5095919;28;20044;-73
2021/01/08 00:02:50;;;;;;;17.83;7.85;;;3.50;99.90;;;;;;5087805;28;20052;-73
2021/01/08 00:05:16;;;;;;;14.43;7.63;;;3.60;99.90;;;;;;5084458;28;20048;-73
2021/01/08 00:07:43;;;;;;;17.45;8.27;;;3.50;99.90;;;;;;5089539;28;20055;-73
2021/01/08 00:10:10;;;;;;;15.95;7.25;;;3.70;99.90;;;;;;5090958;28;20109;-73
2021/01/08 00:12:37;;;;;;;14.43;7.05;;;3.50;99.90;;;;;;5087951;28;20051;-73
2021/01/08 00:15:05;;;;;;;15.52;7.57;;;3.50;99.90;;;;;;5086728;28;20467;-73
2021/01/08 00:17:32;;;;;;;16.50;7.47;;;3.60;99.90;;;;;;5088847;28;20058;-74
2021/01/08 00:19:59;;;;;;;17.55;8.00;;;3.40;99.90;;;;;;5088283;28;20047;-74
2021/01/08 00:22:26;;;;;;;16.63;7.60;;;3.80;99.90;;;;;;5088436;28;20060;-73
2021/01/08 00:24:54;;;;;;;22.42;9.05;;;3.70;99.90;;;;;;5088097;28;20056;-73
2021/01/08 00:27:21;;;;;;;14.85;8.18;;;3.70;99.90;;;;;;5090036;28;20868;-74
2021/01/08 00:29:48;;;;;;;20.23;7.88;;;3.60;99.90;;;;;;5090154;28;20052;-74
2021/01/08 00:32:18;;;;;;;17.40;7.75;;;3.50;99.90;;;;;;5098004;28;20040;-73
2021/01/08 00:34:45;;;;;;;18.05;8.13;;;3.70;99.90;;;;;;5088707;28;20731;-74
2021/01/08 00:37:12;;;;;;;18.17;9.20;;;3.60;99.90;;;;;;5092749;28;20048;-74
2021/01/08 00:39:39;;;;;;;14.93;7.75;;;3.90;99.90;;;;;;5092941;28;20047;-74
2021/01/08 00:42:07;;;;;;;20.63;9.23;;;3.50;99.90;;;;;;5092851;28;20432;-72
2021/01/08 00:44:34;;;;;;;16.13;8.55;;;3.60;99.90;;;;;;5101606;28;20143;-71
2021/01/08 00:47:01;;;;;;;17.90;8.63;;;3.60;99.90;;;;;;5106964;28;20055;-72
2021/01/08 00:49:27;;;;;;;18.30;9.10;;;3.50;99.90;;;;;;5101599;28;20159;-71
2021/01/08 00:51:54;;;;;;;18.95;9.25;;;3.40;99.90;;;;;;5105273;28;20047;-69
2021/01/08 00:54:20;;;;;;;17.20;8.65;;;3.80;99.90;;;;;;5110545;28;20047;-70
2021/01/08 00:56:47;;;;;;;15.88;8.30;;;3.70;99.90;;;;;;5101867;28;20046;-70
2021/01/08 00:59:14;;;;;;;15.02;8.02;;;3.50;99.90;;;;;;5104003;28;20478;-69
2021/01/08 01:01:41;;;;;;;17.48;7.25;;;3.50;99.90;;;;;;5106805;28;20052;-69
2021/01/08 01:04:08;;;;;;;16.67;7.97;;;3.60;99.90;;;;;;5107390;28;20052;-70
2021/01/08 01:06:34;;;;;;;16.48;7.45;;;3.50;99.90;;;;;;5111747;27;20089;-69
2021/01/08 01:09:03;;;;;;;16.27;6.80;;;3.60;99.90;;;;;;5102549;28;20055;-70
2021/01/08 01:11:30;;;;;;;15.52;6.65;;;3.60;99.90;;;;;;5105685;28;20493;-70
2021/01/08 01:13:58;;;;;;;14.48;7.82;;;3.50;99.90;;;;;;5100877;28;20828;-69
2021/01/08 01:16:27;;;;;;;13.43;6.90;;;3.80;99.90;;;;;;5106036;27;20048;-70
2021/01/08 01:18:56;;;;;;;15.13;6.80;;;3.80;99.90;;;;;;5107195;28;20039;-70
2021/01/08 01:21:27;;;;;;;17.33;7.53;;;3.50;99.90;;;;;;5103082;28;20488;-70
2021/01/08 01:23:54;;;;;;;10.73;6.18;;;3.80;99.90;;;;;;5106941;28;20297;-69
2021/01/08 01:30:09;;;;;;;12.07;5.47;;;3.20;99.90;;;;;;5100364;28;20038;-69
2021/01/08 01:32:36;;;;;;;14.90;6.38;;;3.20;99.90;;;;;;5105862;27;20126;-69
2021/01/08 01:35:03;;;;;;;11.68;6.13;;;3.40;99.90;;;;;;5108020;28;20200;-69
2021/01/08 01:37:29;;;;;;;13.13;6.32;;;3.20;99.90;;;;;;5107600;28;20078;-70
2021/01/08 01:39:56;;;;;;;12.82;5.82;;;3.30;99.90;;;;;;5111683;28;20039;-70
2021/01/08 01:42:22;;;;;;;12.68;6.10;;;3.20;99.90;;;;;;5108450;28;20092;-70
2021/01/08 01:44:48;;;;;;;11.73;5.57;;;3.20;99.90;;;;;;5110261;28;20043;-70
2021/01/08 01:47:43;;;;;;;12.32;4.97;;;3.20;99.90;;;;;;5105213;28;20063;-70
2021/01/08 01:50:09;;;;;;;14.27;6.05;;;3.20;99.90;;;;;;5109051;27;20329;-69
2021/01/08 01:52:36;;;;;;;14.77;5.68;;;3.20;99.90;;;;;;5110845;28;20048;-69
2021/01/08 01:55:04;;;;;;;12.90;6.20;;;3.20;99.90;;;;;;5109808;28;20096;-69
2021/01/08 01:57:31;;;;;;;12.38;6.00;;;3.20;99.90;;;;;;5105902;28;20421;-69
2021/01/08 01:59:58;;;;;;;14.20;5.95;;;3.10;99.90;;;;;;5108291;28;20044;-70
2021/01/08 02:02:31;;;;;;;10.70;5.57;;;3.20;99.90;;;;;;5104594;28;20047;-68
2021/01/08 02:05:01;;;;;;;10.63;5.15;;;3.40;99.90;;;;;;5109648;28;20051;-68
2021/01/08 02:07:30;;;;;;;12.52;5.47;;;3.50;99.90;;;;;;5108239;27;20044;-68
2021/01/08 02:09:58;;;;;;;12.32;5.40;;;3.30;99.90;;;;;;5110576;28;20471;-69
2021/01/08 02:12:26;;;;;;;15.45;6.13;;;3.30;99.90;;;;;;5108173;28;20044;-69
2021/01/08 02:14:54;;;;;;;9.52;5.38;;;3.30;99.90;;;;;;5109937;28;20097;-68
2021/01/08 02:17:21;;;;;;;13.20;5.43;;;2.90;99.90;;;;;;5110502;27;20072;-70
2021/01/08 02:19:50;;;;;;;13.32;5.90;;;3.20;99.90;;;;;;5107038;28;20045;-70
2021/01/08 02:22:24;;;;;;;10.32;5.35;;;3.30;99.90;;;;;;5103940;28;20490;-70
2021/01/08 02:25:14;;;;;;;11.25;6.05;;;3.40;99.90;;;;;;5113332;28;20531;-70
2021/01/08 02:27:46;;;;;;;12.82;6.30;;;3.40;99.90;;;;;;5101652;28;20052;-70
2021/01/08 02:30:13;;;;;;;11.98;5.68;;;3.50;99.90;;;;;;5107798;28;20055;-69
2021/01/08 02:32:40;;;;;;;7.97;4.70;;;3.20;99.90;;;;;;5110290;28;20051;-70
2021/01/08 02:35:47;;;;;;;12.88;5.43;;;3.10;99.90;;;;;;5105025;27;20046;-70
2021/01/08 02:38:15;;;;;;;10.52;4.88;;;3.30;99.90;;;;;;5107865;27;20055;-70
2021/01/08 02:40:45;;;;;;;11.35;5.00;;;3.20;99.90;;;;;;5111353;28;20096;-70
2021/01/08 02:43:14;;;;;;;13.73;5.85;;;3.20;99.90;;;;;;5107374;27;20050;-70
2021/01/08 02:45:40;;;;;;;14.43;5.68;;;3.30;99.90;;;;;;5095533;28;20483;-69
2021/01/08 02:48:07;;;;;;;10.15;5.20;;;3.20;99.90;;;;;;5107471;28;20487;-70
2021/01/08 02:50:35;;;;;;;9.80;4.60;;;3.00;99.90;;;;;;5110119;28;20075;-69
2021/01/08 02:53:06;;;;;;;12.73;5.68;;;3.00;99.90;;;;;;5103936;28;20097;-69
2021/01/08 02:55:35;;;;;;;11.35;5.80;;;3.10;99.90;;;;;;5108272;28;20056;-69
2021/01/08 02:58:03;;;;;;;11.85;5.38;;;3.10;99.90;;;;;;5106258;28;20043;-69
2021/01/08 03:00:33;;;;;;;9.52;5.22;;;2.90;99.90;;;;;;5102354;28;20277;-70
2021/01/08 03:03:01;;;;;;;10.63;5.43;;;3.00;99.90;;;;;;5104385;27;20051;-69
2021/01/08 03:05:29;;;;;;;12.10;5.72;;;3.30;99.90;;;;;;5109682;28;20063;-70
2021/01/08 03:07:56;;;;;;;13.73;6.22;;;3.20;99.90;;;;;;5107349;28;20055;-70
2021/01/08 03:10:24;;;;;;;9.98;5.47;;;3.10;99.90;;;;;;5105300;28;20180;-70
2021/01/08 03:12:56;;;;;;;12.23;5.75;;;3.30;99.90;;;;;;5111475;28;20055;-69
2021/01/08 03:15:22;;;;;;;14.10;5.57;;;3.20;99.90;;;;;;5104320;28;20047;-70
2021/01/08 03:17:49;;;;;;;14.73;6.15;;;3.30;99.90;;;;;;5105428;28;20051;-70
2021/01/08 03:20:15;;;;;;;14.13;6.00;;;3.30;99.90;;;;;;5103361;28;20525;-69
2021/01/08 03:22:42;;;;;;;15.05;6.38;;;3.10;99.90;;;;;;5111292;27;20043;-70
2021/01/08 03:25:09;;;;;;;13.00;6.38;;;3.20;99.90;;;;;;5094883;28;20058;-71
2021/01/08 03:27:36;;;;;;;13.45;6.20;;;3.00;99.90;;;;;;5101670;28;20052;-69
2021/01/08 03:30:04;;;;;;;12.88;6.82;;;3.10;99.90;;;;;;5104444;28;20064;-70
2021/01/08 03:32:31;;;;;;;14.68;6.65;;;3.20;99.90;;;;;;5101659;28;20056;-70
2021/01/08 03:34:57;;;;;;;12.75;6.07;;;3.60;99.90;;;;;;5104768;28;20375;-71
2021/01/08 03:37:24;;;;;;;12.55;6.22;;;3.30;99.90;;;;;;5104060;28;20043;-71
2021/01/08 03:39:50;;;;;;;14.95;7.13;;;2.90;99.90;;;;;;5109721;28;20043;-69
2021/01/08 03:42:16;;;;;;;12.35;6.40;;;3.30;99.90;;;;;;5107747;28;21115;-70
2021/01/08 03:44:43;;;;;;;13.82;6.13;;;3.20;99.90;;;;;;5110432;28;20047;-70
2021/01/08 03:47:09;;;;;;;12.27;6.38;;;3.30;99.90;;;;;;5107062;28;20108;-71
2021/01/08 03:49:39;;;;;;;16.08;6.43;;;3.10;99.90;;;;;;5102068;27;20047;-69
2021/01/08 03:52:09;;;;;;;12.27;5.93;;;3.10;99.90;;;;;;5111729;28;20039;-70
2021/01/08 03:54:36;;;;;;;14.82;6.25;;;2.70;99.90;;;;;;5109354;28;20044;-70
2021/01/08 03:57:03;;;;;;;14.40;6.15;;;2.90;99.90;;;;;;5108716;28;20464;-70
2021/01/08 03:59:29;;;;;;;12.02;5.90;;;3.10;99.90;;;;;;5104919;28;20048;-70
2021/01/08 04:01:56;;;;;;;9.88;5.28;;;2.90;99.90;;;;;;5104677;28;20043;-69
2021/01/08 04:04:23;;;;;;;15.93;6.47;;;2.80;99.90;;;;;;5106337;28;20084;-69
2021/01/08 04:06:50;;;;;;;14.30;5.88;;;2.90;99.90;;;;;;5105409;28;20048;-69
2021/01/08 04:09:20;;;;;;;13.63;6.40;;;3.00;99.90;;;;;;5108169;28;20043;-69
2021/01/08 04:11:47;;;;;;;16.47;6.67;;;2.80;99.90;;;;;;5105310;28;20092;-70
2021/01/08 04:14:14;;;;;;;10.00;5.53;;;2.90;99.90;;;;;;5106355;28;20047;-69
2021/01/08 04:16:41;;;;;;;14.63;5.88;;;2.90;99.90;;;;;;5104309;28;20047;-70
2021/01/08 04:19:09;;;;;;;11.85;6.60;;;3.00;99.90;;;;;;5107584;28;20135;-70
2021/01/08 04:22:06;;;;;;;13.20;5.25;;;3.00;99.90;;;;;;5106605;28;20044;-70
2021/01/08 04:24:32;;;;;;;13.43;6.07;;;3.20;99.90;;;;;;5102754;28;20047;-69
2021/01/08 04:26:59;;;;;;;12.25;6.03;;;3.20;99.90;;;;;;5107916;28;20051;-70
2021/01/08 04:29:25;;;;;;;12.73;5.88;;;3.20;99.90;;;;;;5104636;28;20109;-70
2021/01/08 04:31:51;;;;;;;12.40;6.10;;;3.10;99.90;;;;;;5108591;28;20103;-69
2021/01/08 04:34:18;;;;;;;12.88;6.38;;;3.30;99.90;;;;;;5107225;28;20052;-69
2021/01/08 04:36:44;;;;;;;10.48;5.35;;;3.10;99.90;;;;;;5110388;28;20112;-70
2021/01/08 04:39:11;;;;;;;12.98;6.53;;;3.20;99.90;;;;;;5105281;28;20044;-69
2021/01/08 04:41:37;;;;;;;15.18;6.40;;;3.20;99.90;;;;;;5107390;28;20040;-69
2021/01/08 04:44:05;;;;;;;13.63;5.90;;;3.20;99.90;;;;;;5106455;28;20053;-70
2021/01/08 04:46:34;;;;;;;11.68;5.97;;;3.30;99.90;;;;;;5101346;28;20113;-69
2021/01/08 04:49:03;;;;;;;11.07;4.85;;;3.30;99.90;;;;;;5102852;28;20054;-70
2021/01/08 04:51:30;;;;;;;16.40;6.35;;;3.20;99.90;;;;;;5109285;28;20050;-69
2021/01/08 04:53:57;;;;;;;12.15;6.07;;;3.20;99.90;;;;;;5104641;28;20044;-69
2021/01/08 04:56:26;;;;;;;12.10;6.18;;;3.20;99.90;;;;;;5109509;28;20475;-69
2021/01/08 04:58:53;;;;;;;12.90;6.30;;;3.50;99.90;;;;;;5105716;28;20040;-68
2021/01/08 05:01:20;;;;;;;13.02;6.47;;;3.70;99.90;;;;;;5105214;28;20079;-69
2021/01/08 05:03:47;;;;;;;13.43;6.78;;;3.20;99.90;;;;;;5105779;28;20478;-69
2021/01/08 05:06:14;;;;;;;15.50;7.38;;;3.20;99.90;;;;;;5109496;28;20180;-69
2021/01/08 05:08:40;;;;;;;14.52;7.10;;;3.20;99.90;;;;;;5107765;28;20525;-69
2021/01/08 05:11:20;;;;;;;16.33;8.23;;;3.40;99.90;;;;;;5106995;28;20067;-69
2021/01/08 05:13:56;;;;;;;17.33;8.63;;;3.20;99.90;;;;;;5107560;28;20080;-69
2021/01/08 05:16:25;;;;;;;16.48;7.45;;;3.10;99.90;;;;;;5105308;28;20528;-70
2021/01/08 05:18:53;;;;;;;16.47;8.70;;;3.10;99.90;;;;;;5105970;28;20078;-68
2021/01/08 05:21:20;;;;;;;19.58;8.80;;;3.20;99.90;;;;;;5103946;28;20040;-70
2021/01/08 05:23:49;;;;;;;19.38;9.05;;;3.20;99.90;;;;;;5110868;28;20040;-69
2021/01/08 05:26:16;;;;;;;16.45;6.78;;;3.20;99.90;;;;;;5111082;28;20047;-69
2021/01/08 05:28:47;;;;;;;16.77;8.50;;;3.20;99.90;;;;;;5107867;27;20055;-69
2021/01/08 05:31:15;;;;;;;17.95;8.75;;;3.10;99.90;;;;;;5107755;28;20112;-70
2021/01/08 05:33:41;;;;;;;23.02;9.57;;;3.30;99.90;;;;;;5101123;27;20043;-70
2021/01/08 05:36:13;;;;;;;15.82;8.55;;;3.20;99.90;;;;;;5112285;28;20040;-70
2021/01/08 05:38:40;;;;;;;19.52;9.52;;;3.30;99.90;;;;;;5107831;27;20043;-70
2021/01/08 05:41:10;;;;;;;18.63;9.30;;;3.40;99.90;;;;;;5112168;28;20437;-70
2021/01/08 05:43:45;;;;;;;19.73;9.60;;;3.40;99.90;;;;;;5111073;28;20047;-71
2021/01/08 05:46:24;;;;;;;17.55;8.05;;;3.60;99.90;;;;;;5110319;27;20106;-70
2021/01/08 05:48:53;;;;;;;18.83;9.15;;;3.40;99.90;;;;;;5098402;28;20036;-69
2021/01/08 05:51:22;;;;;;;17.88;10.55;;;3.40;99.90;;;;;;5096671;28;20113;-68
2021/01/08 05:53:51;;;;;;;15.02;7.70;;;3.40;99.90;;;;;;5106400;28;20043;-69
2021/01/08 05:56:21;;;;;;;17.83;8.82;;;3.40;99.90;;;;;;5108881;28;20044;-70
2021/01/08 05:58:48;;;;;;;18.83;9.90;;;3.30;99.90;;;;;;5109689;28;20047;-70
2021/01/08 06:01:16;;;;;;;16.17;8.75;;;3.20;99.90;;;;;;5108583;28;20104;-69
2021/01/08 06:03:44;;;;;;;19.60;8.60;;;3.10;99.90;;;;;;5108805;28;20043;-70
2021/01/08 06:06:12;;;;;;;18.50;9.05;;;3.20;99.90;;;;;;5107179;28;20039;-71
2021/01/08 06:08:42;;;;;;;15.80;9.02;;;3.40;99.90;;;;;;5109435;28;20077;-69
2021/01/08 06:11:28;;;;;;;18.50;8.60;;;3.60;99.90;;;;;;5108440;28;20463;-70
2021/01/08 06:14:06;;;;;;;16.70;8.88;;;3.60;99.90;;;;;;5107483;28;20043;-70
2021/01/08 06:16:46;;;;;;;21.52;10.10;;;3.60;99.90;;;;;;5103872;28;20055;-69
2021/01/08 06:19:14;;;;;;;15.95;6.43;;;3.60;99.90;;;;;;5109631;28;20109;-70
2021/01/08 06:21:45;;;;;;;14.45;8.10;;;3.40;99.90;;;;;;5107451;27;20461;-70
2021/01/08 06:24:13;;;;;;;13.55;7.00;;;3.40;99.90;;;;;;5108772;28;20455;-71
2021/01/08 06:26:41;;;;;;;17.00;8.70;;;3.30;99.90;;;;;;5109597;28;20091;-70
2021/01/08 06:29:22;;;;;;;20.73;8.77;;;3.20;99.90;;;;;;5111638;27;20039;-69
2021/01/08 06:31:49;;;;;;;15.60;8.32;;;3.40;99.90;;;;;;5108432;28;20483;-69
2021/01/08 06:34:26;;;;;;;19.25;9.38;;;3.40;99.90;;;;;;5110062;28;20559;-70
2021/01/08 06:37:08;;;;;;;14.73;8.35;;;3.50;99.90;;;;;;5113013;27;20429;-69
2021/01/08 06:39:38;;;;;;;17.02;8.85;;;3.50;99.90;;;;;;5104204;28;20062;-70
2021/01/08 06:42:05;;;;;;;20.92;9.95;;;3.50;99.90;;;;;;5105808;28;20138;-69
2021/01/08 06:44:32;;;;;;;19.42;10.25;;;3.40;99.90;;;;;;5110958;28;20059;-70
2021/01/08 06:47:01;;;;;;;20.02;10.45;;;3.40;99.90;;;;;;5106343;28;20055;-70
2021/01/08 06:49:30;;;;;;;17.83;8.95;;;3.60;99.90;;;;;;5109847;28;20457;-70
2021/01/08 06:52:00;;;;;;;19.83;10.40;;;3.30;99.90;;;;;;5110402;28;20069;-71
2021/01/08 06:54:27;;;;;;;22.67;11.52;;;3.30;99.90;;;;;;5102077;28;20062;-69
2021/01/08 06:57:03;;;;;;;15.20;8.15;;;3.30;99.90;;;;;;5114239;27;20084;-68
2021/01/08 06:59:34;;;;;;;19.15;10.35;;;3.30;99.90;;;;;;5108136;28;20059;-71
2021/01/08 07:02:09;;;;;;;19.13;10.48;;;3.20;99.90;;;;;;5104683;28;20055;-71
2021/01/08 07:04:38;;;;;;;16.30;8.32;;;3.20;99.90;;;;;;5106487;27;20581;-72
2021/01/08 07:07:11;;;;;;;18.27;9.27;;;3.30;99.90;;;;;;5110741;28;20047;-71
2021/01/08 07:09:40;;;;;;;19.75;8.55;;;3.20;99.90;;;;;;5108837;28;20047;-71
2021/01/08 07:12:11;;;;;;;19.58;9.23;;;3.10;99.90;;;;;;5105354;27;20387;-71
2021/01/08 07:14:38;;;;;;;17.50;8.90;;;3.30;99.90;;;;;;5104613;28;20044;-70
2021/01/08 07:17:13;;;;;;;13.63;7.85;;;3.20;99.90;;;;;;5108020;28;20116;-71
2021/01/08 07:19:44;;;;;;;12.90;6.70;;;3.20;99.90;;;;;;5109132;28;20468;-71
2021/01/08 07:22:20;;;;;;;12.75;7.18;;;3.10;99.90;;;;;;5106305;27;20101;-71
2021/01/08 07:24:48;;;;;;;12.48;6.55;;;3.20;99.90;;;;;;5112211;27;20039;-72
2021/01/08 07:27:14;;;;;;;12.00;6.13;;;3.20;99.90;;;;;;5104563;28;20043;-71
2021/01/08 07:29:48;;;;;;;14.15;6.30;;;3.20;99.90;;;;;;5109227;27;20051;-70
2021/01/08 07:32:14;;;;;;;12.57;5.72;;;3.20;99.90;;;;;;5108542;28;20043;-70
2021/01/08 07:34:41;;;;;;;9.82;5.35;;;3.30;99.90;;;;;;5104970;27;20075;-70
2021/01/08 07:37:07;;;;;;;10.57;5.32;;;3.10;99.90;;;;;;5103965;27;20429;-72
2021/01/08 07:39:39;;;;;;;8.68;5.00;;;3.20;99.90;;;;;;5100875;28;20052;-71
2021/01/08 07:42:33;;;;;;;8.50;4.75;;;3.20;99.90;;;;;;5108221;27;20496;-71
2021/01/08 07:48:16;;;;;;;7.95;4.57;;;3.20;99.90;;;;;;5103920;28;20038;-72
2021/01/08 07:50:56;;;;;;;11.30;4.43;;;3.30;99.90;;;;;;5105836;28;20550;-70
2021/01/08 07:53:41;;;;;;;10.20;5.25;;;3.20;99.90;;;;;;5107493;28;20051;-71
2021/01/08 07:56:11;;;;;;;9.75;5.03;;;3.10;99.90;;;;;;5109720;28;20043;-71
2021/01/08 07:58:37;;;;;;;7.15;4.75;;;3.30;99.90;;;;;;5103030;28;20124;-71
2021/01/08 08:01:05;;;;;;;8.07;4.43;;;3.30;99.90;;;;;;5105605;28;20485;-71
2021/01/08 08:03:32;;;;;;;6.60;4.32;;;3.20;99.90;;;;;;5122846;27;20143;-71
2021/01/08 08:06:03;;;;;;;8.15;3.90;;;3.20;99.90;;;;;;5107089;27;20063;-71
2021/01/08 08:08:30;;;;;;;7.97;4.28;;;3.30;99.90;;;;;;5104369;28;20073;-71
2021/01/08 08:11:11;;;;;;;6.88;3.88;;;3.20;99.90;;;;;;5105319;28;20055;-71
2021/01/08 08:13:38;;;;;;;10.77;4.95;;;3.30;99.90;;;;;;5105239;28;20040;-70
2021/01/08 08:16:05;;;;;;;8.73;3.97;;;3.40;99.90;;;;;;5107972;28;20039;-71
2021/01/08 08:18:32;;;;;;;8.45;4.57;;;3.30;99.90;;;;;;5104254;28;20044;-71
2021/01/08 08:21:18;;;;;;;9.85;4.18;;;3.40;99.90;;;;;;5105334;28;20036;-71
2021/01/08 08:23:58;;;;;;;7.28;4.20;;;3.30;99.90;;;;;;5107396;28;20096;-71
2021/01/08 08:26:28;;;;;;;6.82;3.80;;;3.40;99.90;;;;;;5106375;28;20047;-70
2021/01/08 08:29:14;;;;;;;11.07;4.25;;;3.40;99.90;;;;;;5108956;28;20056;-70
2021/01/08 08:31:47;;;;;;;8.25;3.90;;;3.40;99.90;;;;;;5105247;28;20060;-70
2021/01/08 08:34:25;;;;;;;8.38;3.30;;;3.40;99.90;;;;;;5107091;28;20066;-72
2021/01/08 08:36:51;;;;;;;7.10;3.80;;;3.40;99.90;;;;;;5107708;28;20052;-70
2021/01/08 08:39:17;;;;;;;6.80;3.83;;;3.40;99.90;;;;;;5105288;28;20043;-71
2021/01/08 08:41:45;;;;;;;8.32;3.95;;;3.60;99.90;;;;;;5108625;28;20080;-70
2021/01/08 08:44:15;;;;;;;6.75;3.72;;;3.60;99.90;;;;;;5107826;28;20050;-70
2021/01/08 08:46:52;;;;;;;11.05;4.65;;;3.50;99.90;;;;;;5105709;28;20544;-71
2021/01/08 08:49:21;;;;;;;6.60;4.25;;;3.50;99.90;;;;;;5105164;28;20134;-71
2021/01/08 08:51:51;;;;;;;9.80;4.38;;;3.50;99.90;;;;;;5102692;28;20440;-71
2021/01/08 08:54:19;;;;;;;8.98;4.97;;;3.50;99.90;;;;;;5107718;28;20093;-71
2021/01/08 08:56:50;;;;;;;11.00;4.57;;;3.50;99.90;;;;;;5107965;28;20044;-71
2021/01/08 08:59:37;;;;;;;9.20;4.63;;;3.50;99.90;;;;;;5109062;28;20398;-71
2021/01/08 09:02:05;;;;;;;14.93;4.75;;;3.40;99.90;;;;;;5103310;28;20083;-71
2021/01/08 09:04:32;;;;;;;7.22;4.65;;;3.40;99.90;;;;;;5113177;28;20138;-71
2021/01/08 09:07:16;;;;;;;7.50;4.10;;;3.40;99.90;;;;;;5110837;27;20104;-72
2021/01/08 09:09:46;;;;;;;8.50;4.20;;;3.40;99.90;;;;;;5107577;27;20048;-72
2021/01/08 09:12:34;;;;;;;10.40;4.80;;;3.40;99.90;;;;;;5108831;28;20473;-71
2021/01/08 09:15:12;;;;;;;9.88;4.85;;;3.40;99.90;;;;;;5113332;27;20048;-71
2021/01/08 09:17:44;;;;;;;8.90;4.82;;;3.40;99.90;;;;;;5109652;28;20652;-70
2021/01/08 09:20:15;;;;;;;13.15;4.72;;;3.40;99.90;;;;;;5113513;28;20655;-70
2021/01/08 09:22:42;;;;;;;7.80;4.03;;;3.40;99.90;;;;;;5113577;27;20104;-71
2021/01/08 09:25:10;;;;;;;11.05;4.47;;;3.40;99.90;;;;;;5112449;27;20040;-72
2021/01/08 09:27:41;;;;;;;12.02;5.47;;;3.30;99.90;;;;;;5112129;28;20051;-70
2021/01/08 09:30:11;;;;;;;;;;;3.50;99.90;;;;;;5103801;28;20043;-70
2021/01/08 09:32:38;;;;;;;8.50;4.32;;;3.50;99.90;;;;;;5113294;27;20443;-71
2021/01/08 09:35:10;;;;;;;12.75;5.63;;;3.40;99.90;;;;;;5109644;28;20512;-70
2021/01/08 09:37:42;;;;;;;11.40;5.13;;;3.30;99.90;;;;;;5108723;28;20528;-70
2021/01/08 09:40:16;;;;;;;11.00;5.07;;;3.40;99.90;;;;;;5112664;28;20096;-71
2021/01/08 09:42:44;;;;;;;10.60;5.32;;;3.50;99.90;;;;;;5110286;27;20059;-71
2021/01/08 09:45:24;;;;;;;8.95;5.25;;;3.30;99.90;;;;;;5112419;27;20055;-71
2021/01/08 09:47:51;;;;;;;10.88;4.95;;;3.20;99.90;;;;;;5103761;28;20112;-71
2021/01/08 09:50:27;;;;;;;11.77;5.88;;;3.30;99.90;;;;;;5110939;27;20101;-70
2021/01/08 09:52:57;;;;;;;9.35;5.05;;;3.30;99.90;;;;;;5111819;28;20084;-71
2021/01/08 09:55:31;;;;;;;11.60;5.57;;;3.30;99.90;;;;;;5104186;28;20051;-71
2021/01/08 09:58:02;;;;;;;9.43;4.82;;;3.30;99.90;;;;;;5105603;27;20402;-71
2021/01/08 10:00:35;;;;;;;11.27;6.05;;;3.20;99.90;;;;;;5111245;28;20448;-71
2021/01/08 10:03:05;;;;;;;14.20;7.45;;;3.20;99.90;;;;;;5110307;28;20052;-71
2021/01/08 10:05:32;;;;;;;11.07;5.97;;;3.10;99.90;;;;;;5107964;28;20056;-71
2021/01/08 10:08:00;;;;;;;12.85;6.07;;;3.20;99.90;;;;;;5110145;28;20052;-72
2021/01/08 10:10:26;;;;;;;10.05;5.38;;;3.10;99.90;;;;;;5104856;28;20501;-71
2021/01/08 10:12:54;;;;;;;13.45;6.32;;;3.20;99.90;;;;;;5107900;28;20039;-71
2021/01/08 10:15:33;;;;;;;13.70;4.70;;;3.30;99.90;;;;;;5103971;27;20460;-71
2021/01/08 10:18:17;;;;;;;9.95;5.40;;;3.10;99.90;;;;;;5103847;28;20040;-72
2021/01/08 10:20:55;;;;;;;11.25;5.47;;;3.20;99.90;;;;;;5110812;28;20043;-71
2021/01/08 10:23:25;;;;;;;10.13;5.88;;;3.30;99.90;;;;;;5108951;28;20462;-71
2021/01/08 10:26:09;;;;;;;11.88;5.47;;;3.20;99.90;;;;;;5108521;28;20040;-71
2021/01/08 10:28:53;;;;;;;11.85;5.35;;;3.40;99.90;;;;;;5105353;28;20101;-71
2021/01/08 10:31:20;;;;;;;12.10;5.50;;;3.40;99.90;;;;;;5104050;28;20059;-71
2021/01/08 10:33:47;;;;;;;10.65;5.97;;;3.30;99.90;;;;;;5110813;28;20059;-70
2021/01/08 10:36:14;;;;;;;11.95;5.85;;;3.30;99.90;;;;;;5108335;28;20044;-71
2021/01/08 10:38:42;;;;;;;12.88;6.22;;;3.40;99.90;;;;;;5108007;28;20051;-71
2021/01/08 10:41:15;;;;;;;12.63;5.75;;;3.50;99.90;;;;;;5105877;28;20044;-72
2021/01/08 10:43:42;;;;;;;15.70;6.18;;;3.60;99.90;;;;;;5106716;28;20101;-71
2021/01/08 10:46:10;;;;;;;11.00;5.13;;;3.40;99.90;;;;;;5109513;27;20085;-71
2021/01/08 10:48:40;;;;;;;11.40;5.68;;;3.60;99.90;;;;;;5107082;28;20051;-72
2021/01/08 10:51:08;;;;;;;10.18;5.32;;;3.40;99.90;;;;;;5115262;27;20057;-74
2021/01/08 10:53:35;;;;;;;8.80;4.38;;;3.10;99.90;;;;;;5110283;28;20063;-70
2021/01/08 10:56:03;;;;;;;11.05;6.13;;;3.50;99.90;;;;;;5099419;28;20086;-72
2021/01/08 10:58:31;;;;;;;12.60;6.70;;;3.40;99.90;;;;;;5103958;28;20059;-72
2021/01/08 11:00:58;;;;;;;13.80;6.43;;;3.20;99.90;;;;;;5088388;28;20044;-76
2021/01/08 11:03:25;;;;;;;14.98;6.57;;;3.20;99.90;;;;;;5088025;28;20056;-71
2021/01/08 11:05:51;;;;;;;15.60;6.75;;;3.30;99.90;;;;;;5087254;28;20060;-72
2021/01/08 11:08:18;;;;;;;11.52;6.03;;;3.40;99.90;;;;;;5087210;27;20461;-74
2021/01/08 11:10:44;;;;;;;13.52;6.95;;;3.50;99.90;;;;;;5089571;28;20113;-73
2021/01/08 11:13:10;;;;;;;13.00;7.05;;;3.50;99.90;;;;;;5089149;28;20070;-75
2021/01/08 11:15:37;;;;;;;12.68;6.20;;;3.40;99.90;;;;;;5091191;28;20039;-73
2021/01/08 11:18:04;;;;;;;11.15;6.30;;;3.50;99.90;;;;;;5088656;28;20146;-74
2021/01/08 11:20:31;;;;;;;14.27;6.82;;;3.30;99.90;;;;;;5097926;28;20047;-74
2021/01/08 11:23:03;;;;;;;13.43;6.22;;;3.10;99.90;;;;;;5090019;28;20138;-72
2021/01/08 11:25:29;;;;;;;12.65;6.93;;;3.30;99.90;;;;;;5096392;28;20052;-74
2021/01/08 11:27:56;;;;;;;12.68;6.70;;;3.60;99.90;;;;;;5087243;28;20059;-73
2021/01/08 11:30:22;;;;;;;16.55;8.07;;;3.40;99.90;;;;;;5086410;28;20483;-73
2021/01/08 11:32:48;;;;;;;17.40;7.32;;;3.20;99.90;;;;;;5087004;27;20380;-74
2021/01/08 11:35:15;;;;;;;13.73;6.80;;;3.40;99.90;;;;;;5089542;28;20483;-74
2021/01/08 11:37:41;;;;;;;13.07;7.05;;;3.30;99.90;;;;;;5083518;28;20066;-74
2021/01/08 11:40:08;;;;;;;14.25;7.30;;;3.20;99.90;;;;;;5089117;28;20047;-73
2021/01/08 11:42:35;;;;;;;14.80;7.10;;;3.30;99.90;;;;;;5084842;28;20051;-71
2021/01/08 11:45:03;;;;;;;13.38;7.18;;;3.40;99.90;;;;;;5088020;28;20059;-74
2021/01/08 11:47:34;;;;;;;15.93;7.65;;;3.50;99.90;;;;;;5088687;28;20137;-78
2021/01/08 11:50:01;;;;;;;16.70;7.63;;;3.50;99.90;;;;;;5087818;28;20067;-70
2021/01/08 11:52:31;;;;;;;13.05;7.32;;;3.50;99.90;;;;;;5085816;28;20549;-76
2021/01/08 11:54:58;;;;;;;15.10;6.78;;;3.80;99.90;;;;;;5089638;28;20109;-75
2021/01/08 11:57:26;;;;;;;13.85;7.00;;;3.70;99.90;;;;;;5085585;28;20052;-73
2021/01/08 11:59:53;;;;;;;12.18;6.55;;;3.70;99.90;;;;;;5085346;28;20048;-70
2021/01/08 12:02:19;;;;;;;12.88;6.40;;;4.10;99.90;;;;;;5085189;27;20139;-71
2021/01/08 12:04:49;;;;;;;11.68;6.38;;;3.70;99.90;;;;;;5087997;28;20083;-72
2021/01/08 12:07:15;;;;;;;13.57;6.90;;;3.70;99.90;;;;;;5090827;28;20051;-76
2021/01/08 12:09:42;;;;;;;11.60;6.18;;;4.10;99.90;;;;;;5090196;28;20096;-76
2021/01/08 12:12:08;;;;;;;15.02;7.22;;;3.80;99.90;;;;;;5087187;28;20051;-74
2021/01/08 12:14:35;;;;;;;12.63;6.82;;;3.70;99.90;;;;;;5088975;28;20055;-74
2021/01/08 12:17:06;;;;;;;13.98;6.68;;;3.70;99.90;;;;;;5089905;28;20058;-76
2021/01/08 12:19:37;;;;;;;13.80;7.15;;;3.70;99.90;;;;;;5087441;28;20079;-74
2021/01/08 12:22:04;;;;;;;13.40;6.90;;;3.80;99.90;;;;;;5084099;28;20046;-73
2021/01/08 12:24:31;;;;;;;15.55;7.40;;;3.60;99.90;;;;;;5090110;28;20063;-71
2021/01/08 12:26:57;;;;;;;13.93;7.30;;;3.60;99.90;;;;;;5093664;28;20677;-72
2021/01/08 12:29:26;;;;;;;6.47;4.32;;;3.70;99.90;;;;;;5091522;28;20040;-72
2021/01/08 12:31:53;;;;;;;15.65;7.43;;;3.50;99.90;;;;;;5088805;28;20046;-73
2021/01/08 12:34:20;;;;;;;16.35;7.78;;;3.70;99.90;;;;;;5095569;28;20043;-73
2021/01/08 12:36:46;;;;;;;13.23;7.07;;;3.70;99.90;;;;;;5089862;28;20052;-73
2021/01/08 12:39:13;;;;;;;13.18;7.35;;;3.70;99.90;;;;;;5091128;28;20486;-74
2021/01/08 12:41:40;;;;;;;19.23;7.40;;;3.70;99.90;;;;;;5094392;28;20498;-71
2021/01/08 12:44:07;;;;;;;13.50;7.13;;;3.70;99.90;;;;;;5091516;28;20048;-74
2021/01/08 12:46:33;;;;;;;14.13;7.13;;;3.70;99.90;;;;;;5090379;28;20493;-71
2021/01/08 12:49:05;;;;;;;12.45;7.45;;;3.60;99.90;;;;;;5092167;28;20099;-71
2021/01/08 12:51:35;;;;;;;12.98;7.32;;;3.60;99.90;;;;;;5092604;28;20056;-72
2021/01/08 12:54:02;;;;;;;;;;;3.60;99.90;;;;;;5094716;28;20044;-71
2021/01/08 12:56:30;;;;;;;13.98;6.15;;;3.80;99.90;;;;;;5093060;28;19973;-71
2021/01/08 12:58:59;;;;;;;12.15;6.80;;;3.60;99.90;;;;;;5095559;27;20105;-74
2021/01/08 13:01:25;;;;;;;15.23;7.70;;;3.60;99.90;;;;;;5091636;28;20048;-73
2021/01/08 13:03:52;;;;;;;11.50;6.63;;;3.70;99.90;;;;;;5094683;28;20048;-74
2021/01/08 13:06:26;;;;;;;16.40;8.45;;;4.00;99.90;;;;;;5094601;28;20052;-73